Time;durP1;ratioP1;P1;durP2;ratioP2;P2;SDS_P1;SDS_P2;PMS_P1;PMS_P2;Temp;Humidity;BMP_temperature;BMP_pressure;BME280_temperature;BME280_humidity;BME280_pressure;Samples;Min_cycle;Max_cycle;Signal;HPM_P1;HPM_P2
2020/12/11 00:01:00;;;;;;;34.13;17.40;;;;;;;;;;5011331;28;20934;-52
2020/12/11 00:03:27;;;;;;;30.77;18.40;;;;;;;;;;5010995;28;20168;-51
2020/12/11 00:05:53;;;;;;;30.45;17.25;;;;;;;;;;5011231;28;20558;-53
2020/12/11 00:08:19;;;;;;;34.00;18.40;;;;;;;;;;5011208;28;20247;-52
2020/12/11 00:10:48;;;;;;;31.95;18.40;;;;;;;;;;5010441;28;20426;-52
2020/12/11 00:13:14;;;;;;;30.10;15.88;;;;;;;;;;5010425;28;20176;-53
2020/12/11 00:15:40;;;;;;;29.20;17.90;;;;;;;;;;5010643;28;20299;-53
2020/12/11 00:18:06;;;;;;;34.33;17.70;;;;;;;;;;5011090;28;20191;-51
2020/12/11 00:20:32;;;;;;;29.38;15.98;;;;;;;;;;5010971;28;20168;-51
2020/12/11 00:22:58;;;;;;;30.00;16.83;;;;;;;;;;5010910;28;20164;-52
2020/12/11 00:25:24;;;;;;;32.95;18.30;;;;;;;;;;5010736;28;20291;-51
2020/12/11 00:27:50;;;;;;;29.02;17.80;;;;;;;;;;5011109;28;20283;-51
2020/12/11 00:30:16;;;;;;;33.17;18.27;;;;;;;;;;5010544;28;20223;-51
2020/12/11 00:32:42;;;;;;;29.85;18.10;;;;;;;;;;5010916;28;20415;-51
2020/12/11 00:35:09;;;;;;;32.10;18.33;;;;;;;;;;5010777;28;20208;-51
2020/12/11 00:37:35;;;;;;;36.40;18.00;;;;;;;;;;5011036;28;20414;-50
2020/12/11 00:40:02;;;;;;;37.38;20.50;;;;;;;;;;5010260;28;20177;-52
2020/12/11 00:42:27;;;;;;;28.67;16.92;;;;;;;;;;5010678;28;20718;-51
2020/12/11 00:44:53;;;;;;;30.30;17.70;;;;;;;;;;5010835;28;20197;-53
2020/12/11 00:47:19;;;;;;;33.03;18.10;;;;;;;;;;5010849;28;20948;-51
2020/12/11 00:49:45;;;;;;;30.55;16.75;;;;;;;;;;5011183;28;20479;-50
2020/12/11 00:52:11;;;;;;;31.37;17.37;;;;;;;;;;5010692;28;20161;-50
2020/12/11 00:54:37;;;;;;;33.20;18.20;;;;;;;;;;5010896;28;20813;-51
2020/12/11 00:57:03;;;;;;;33.70;18.67;;;;;;;;;;5010972;28;20176;-51
2020/12/11 00:59:29;;;;;;;28.57;16.23;;;;;;;;;;5011011;28;20769;-50
2020/12/11 01:01:55;;;;;;;30.23;17.10;;;;;;;;;;5010735;28;20459;-51
2020/12/11 01:04:21;;;;;;;33.33;18.10;;;;;;;;;;5010759;28;20473;-51
2020/12/11 01:06:47;;;;;;;32.07;17.70;;;;;;;;;;5010764;28;20410;-51
2020/12/11 01:09:13;;;;;;;34.20;17.50;;;;;;;;;;5010773;28;20399;-51
2020/12/11 01:11:39;;;;;;;34.80;18.77;;;;;;;;;;5008019;28;20510;-51
2020/12/11 01:14:05;;;;;;;33.07;18.73;;;;;;;;;;5010407;28;20420;-51
2020/12/11 01:16:31;;;;;;;37.15;19.80;;;;;;;;;;5010706;28;20810;-51
2020/12/11 01:18:57;;;;;;;31.87;18.00;;;;;;;;;;5009952;28;20192;-52
2020/12/11 01:21:23;;;;;;;30.48;18.05;;;;;;;;;;5010581;28;20954;-53
2020/12/11 01:23:49;;;;;;;25.90;18.23;;;;;;;;;;5010199;28;20176;-51
2020/12/11 01:26:15;;;;;;;30.77;17.80;;;;;;;;;;5010567;28;20217;-52
2020/12/11 01:28:41;;;;;;;30.38;18.75;;;;;;;;;;5010400;28;20403;-52
2020/12/11 01:31:07;;;;;;;31.40;17.70;;;;;;;;;;5010537;28;20172;-51
2020/12/11 01:33:33;;;;;;;32.20;18.00;;;;;;;;;;5010132;28;20458;-52
2020/12/11 01:35:59;;;;;;;31.47;18.20;;;;;;;;;;5010434;28;20454;-51
2020/12/11 01:38:25;;;;;;;30.67;18.03;;;;;;;;;;5010609;28;20434;-52
2020/12/11 01:40:51;;;;;;;30.50;17.60;;;;;;;;;;5009738;28;20430;-51
2020/12/11 01:43:20;;;;;;;28.50;17.17;;;;;;;;;;5011220;28;20446;-50
2020/12/11 01:45:46;;;;;;;31.67;17.90;;;;;;;;;;5013827;28;20242;-51
2020/12/11 01:48:12;;;;;;;34.33;18.17;;;;;;;;;;5013896;28;20168;-52
2020/12/11 01:50:39;;;;;;;38.55;18.80;;;;;;;;;;5013598;28;20541;-51
2020/12/11 01:53:09;;;;;;;33.30;19.38;;;;;;;;;;5013645;28;20594;-51
2020/12/11 01:55:35;;;;;;;36.17;18.27;;;;;;;;;;5012859;28;20204;-51
2020/12/11 01:58:02;;;;;;;29.93;18.50;;;;;;;;;;5013633;28;20663;-51
2020/12/11 02:00:28;;;;;;;34.72;19.48;;;;;;;;;;5013383;28;20418;-51
2020/12/11 02:03:07;;;;;;;31.17;18.02;;;;;;;;;;5012632;28;20262;-51
2020/12/11 02:05:33;;;;;;;31.65;18.23;;;;;;;;;;5012750;28;20686;-52
2020/12/11 02:07:59;;;;;;;30.30;16.57;;;;;;;;;;5013500;28;20164;-52
2020/12/11 02:10:26;;;;;;;35.40;19.50;;;;;;;;;;5013107;28;20478;-52
2020/12/11 02:12:51;;;;;;;30.27;19.42;;;;;;;;;;5013253;28;20255;-51
2020/12/11 02:15:17;;;;;;;39.67;20.40;;;;;;;;;;5012350;28;20278;-51
2020/12/11 02:17:43;;;;;;;34.57;18.77;;;;;;;;;;5013389;28;20476;-54
2020/12/11 02:20:10;;;;;;;29.15;17.58;;;;;;;;;;5013067;28;20491;-52
2020/12/11 02:22:36;;;;;;;32.78;19.05;;;;;;;;;;5012950;28;20710;-52
2020/12/11 02:25:02;;;;;;;34.73;19.83;;;;;;;;;;5012983;28;20195;-52
2020/12/11 02:27:28;;;;;;;31.88;19.30;;;;;;;;;;5012985;28;21096;-51
2020/12/11 02:29:54;;;;;;;35.23;19.53;;;;;;;;;;5013119;28;20239;-51
2020/12/11 02:32:20;;;;;;;33.43;19.17;;;;;;;;;;5012723;28;20888;-51
2020/12/11 02:34:46;;;;;;;36.25;19.50;;;;;;;;;;5013051;28;20458;-50
2020/12/11 02:37:13;;;;;;;31.93;18.63;;;;;;;;;;5012923;28;20176;-51
2020/12/11 02:39:39;;;;;;;32.30;17.85;;;;;;;;;;5012922;28;20418;-51
2020/12/11 02:42:06;;;;;;;34.70;18.67;;;;;;;;;;5011664;28;20191;-51
2020/12/11 02:44:37;;;;;;;31.67;20.30;;;;;;;;;;5012872;28;20683;-51
2020/12/11 02:47:03;;;;;;;32.33;19.70;;;;;;;;;;5012922;28;20587;-51
2020/12/11 02:49:30;;;;;;;35.92;19.95;;;;;;;;;;5013047;28;20173;-51
2020/12/11 02:51:56;;;;;;;36.42;19.23;;;;;;;;;;5012717;28;20172;-51
2020/12/11 02:54:22;;;;;;;32.73;19.37;;;;;;;;;;5011586;28;20344;-51
2020/12/11 02:56:48;;;;;;;35.58;19.55;;;;;;;;;;5012656;28;20392;-52
2020/12/11 02:59:14;;;;;;;35.90;20.33;;;;;;;;;;5012647;28;20654;-51
2020/12/11 03:01:59;;;;;;;31.40;17.50;;;;;;;;;;5012227;28;20946;-51
2020/12/11 03:04:25;;;;;;;34.53;18.02;;;;;;;;;;5011324;28;20459;-52
2020/12/11 03:06:51;;;;;;;31.97;18.90;;;;;;;;;;5012408;28;20651;-52
2020/12/11 03:09:17;;;;;;;31.17;19.02;;;;;;;;;;5012230;28;20479;-51
2020/12/11 03:11:43;;;;;;;30.37;18.67;;;;;;;;;;5011471;28;20619;-52
2020/12/11 03:14:09;;;;;;;34.90;19.40;;;;;;;;;;5011781;28;20450;-52
2020/12/11 03:16:35;;;;;;;32.30;18.80;;;;;;;;;;5012248;28;20391;-52
2020/12/11 03:19:01;;;;;;;29.13;17.40;;;;;;;;;;5011289;28;20464;-51
2020/12/11 03:21:27;;;;;;;26.97;15.63;;;;;;;;;;5012034;28;20454;-51
2020/12/11 03:23:53;;;;;;;32.97;19.00;;;;;;;;;;5011702;28;20435;-51
2020/12/11 03:26:19;;;;;;;32.43;17.23;;;;;;;;;;5012004;28;20398;-51
2020/12/11 03:28:45;;;;;;;31.05;19.13;;;;;;;;;;5011813;28;20820;-51
2020/12/11 03:31:11;;;;;;;32.27;19.13;;;;;;;;;;5011924;28;20243;-51
2020/12/11 03:33:37;;;;;;;30.87;17.77;;;;;;;;;;5011525;28;20481;-51
2020/12/11 03:36:03;;;;;;;29.30;17.30;;;;;;;;;;5011838;28;20464;-53
2020/12/11 03:38:29;;;;;;;30.47;18.50;;;;;;;;;;5011121;28;20438;-51
2020/12/11 03:40:55;;;;;;;30.27;17.30;;;;;;;;;;5011648;28;20403;-51
2020/12/11 03:43:21;;;;;;;30.63;17.87;;;;;;;;;;5011564;28;20439;-51
2020/12/11 03:45:47;;;;;;;27.60;16.97;;;;;;;;;;5011597;28;20478;-51
2020/12/11 03:48:13;;;;;;;25.77;17.40;;;;;;;;;;5011698;28;20504;-51
2020/12/11 03:50:39;;;;;;;28.93;16.80;;;;;;;;;;5011623;28;20407;-51
2020/12/11 03:53:04;;;;;;;26.63;16.27;;;;;;;;;;5011495;28;20396;-51
2020/12/11 03:55:32;;;;;;;27.23;16.50;;;;;;;;;;5011319;28;20511;-52
2020/12/11 03:57:58;;;;;;;28.45;16.92;;;;;;;;;;5011419;28;20945;-51
2020/12/11 04:00:24;;;;;;;29.47;18.83;;;;;;;;;;5011247;28;20204;-52
2020/12/11 04:02:50;;;;;;;29.07;16.23;;;;;;;;;;5011223;28;20462;-52
2020/12/11 04:05:16;;;;;;;26.35;15.88;;;;;;;;;;5010994;28;20462;-52
2020/12/11 04:07:42;;;;;;;23.67;14.77;;;;;;;;;;5010524;28;20180;-50
2020/12/11 04:10:08;;;;;;;27.53;14.73;;;;;;;;;;5011476;28;20395;-51
2020/12/11 04:12:34;;;;;;;25.80;15.83;;;;;;;;;;5009612;28;20414;-51
2020/12/11 04:15:00;;;;;;;26.40;13.63;;;;;;;;;;5011317;28;20422;-51
2020/12/11 04:17:25;;;;;;;17.95;12.00;;;;;;;;;;5011119;28;20911;-51
2020/12/11 04:19:51;;;;;;;25.40;16.77;;;;;;;;;;5011163;28;20251;-50
2020/12/11 04:22:17;;;;;;;27.17;15.27;;;;;;;;;;5010801;28;20407;-52
2020/12/11 04:24:43;;;;;;;27.67;15.93;;;;;;;;;;5011085;28;21028;-51
2020/12/11 04:27:09;;;;;;;22.63;15.10;;;;;;;;;;5011019;28;20883;-51
2020/12/11 04:29:35;;;;;;;22.13;14.80;;;;;;;;;;5011217;28;20396;-53
2020/12/11 04:32:01;;;;;;;24.53;14.40;;;;;;;;;;5010885;28;20502;-52
2020/12/11 04:34:27;;;;;;;19.27;12.90;;;;;;;;;;5010935;28;20451;-51
2020/12/11 04:36:54;;;;;;;18.17;12.40;;;;;;;;;;5011244;28;20495;-51
2020/12/11 04:39:20;;;;;;;23.88;14.00;;;;;;;;;;5010044;28;20513;-52
2020/12/11 04:41:47;;;;;;;21.90;14.32;;;;;;;;;;5011185;28;20589;-51
2020/12/11 04:44:13;;;;;;;19.88;12.70;;;;;;;;;;5010950;28;20271;-51
2020/12/11 04:46:39;;;;;;;19.20;12.90;;;;;;;;;;5010482;28;20280;-51
2020/12/11 04:49:06;;;;;;;19.88;12.95;;;;;;;;;;5010909;28;20407;-51
2020/12/11 04:51:33;;;;;;;21.15;13.35;;;;;;;;;;5010949;28;20203;-52
2020/12/11 04:54:00;;;;;;;20.00;13.57;;;;;;;;;;5010557;28;20179;-51
2020/12/11 04:56:27;;;;;;;22.00;13.95;;;;;;;;;;5010866;28;20197;-53
2020/12/11 04:58:53;;;;;;;20.73;13.80;;;;;;;;;;5010777;28;20169;-51
2020/12/11 05:01:27;;;;;;;26.90;13.95;;;;;;;;;;5010773;28;20671;-51
2020/12/11 05:03:54;;;;;;;19.63;12.45;;;;;;;;;;5010759;28;20527;-51
2020/12/11 05:06:20;;;;;;;20.52;12.93;;;;;;;;;;5010757;28;20284;-52
2020/12/11 05:08:46;;;;;;;24.63;13.73;;;;;;;;;;5009801;28;20617;-52
2020/12/11 05:11:29;;;;;;;18.73;13.00;;;;;;;;;;5010678;28;20168;-51
2020/12/11 05:13:55;;;;;;;18.17;13.40;;;;;;;;;;5010312;28;21173;-51
2020/12/11 05:16:21;;;;;;;19.35;13.82;;;;;;;;;;5010713;28;20267;-52
2020/12/11 05:18:48;;;;;;;19.08;13.10;;;;;;;;;;5013098;28;20223;-51
2020/12/11 05:21:17;;;;;;;19.30;12.98;;;;;;;;;;5014309;28;20632;-51
2020/12/11 05:23:56;;;;;;;21.35;13.38;;;;;;;;;;5014192;28;20168;-51
2020/12/11 05:26:22;;;;;;;17.17;11.85;;;;;;;;;;5014878;28;20183;-52
2020/12/11 05:28:49;;;;;;;21.73;13.77;;;;;;;;;;5014282;28;20176;-51
2020/12/11 05:31:15;;;;;;;16.98;11.73;;;;;;;;;;5014056;28;20196;-53
2020/12/11 05:34:00;;;;;;;19.60;13.53;;;;;;;;;;5013593;28;20613;-53
2020/12/11 05:36:26;;;;;;;20.15;12.65;;;;;;;;;;5012761;28;20458;-53
2020/12/11 05:38:51;;;;;;;18.10;12.50;;;;;;;;;;5012117;28;20219;-52
2020/12/11 05:41:33;;;;;;;17.70;12.17;;;;;;;;;;5012504;28;20185;-52
2020/12/11 05:43:59;;;;;;;19.02;12.63;;;;;;;;;;5012476;28;20459;-53
2020/12/11 05:46:31;;;;;;;25.13;13.07;;;;;;;;;;5013093;28;20169;-53
2020/12/11 05:48:58;;;;;;;22.80;13.40;;;;;;;;;;5011982;28;20494;-52
2020/12/11 05:51:25;;;;;;;18.83;13.10;;;;;;;;;;5012586;28;20636;-53
2020/12/11 05:53:55;;;;;;;20.63;14.30;;;;;;;;;;5012395;28;20164;-52
2020/12/11 05:56:22;;;;;;;18.50;12.45;;;;;;;;;;5012438;28;20195;-52
2020/12/11 05:58:51;;;;;;;20.23;13.73;;;;;;;;;;5012529;28;20177;-53
2020/12/11 06:01:20;;;;;;;20.63;14.00;;;;;;;;;;5012435;28;20855;-53
2020/12/11 06:03:46;;;;;;;20.35;13.32;;;;;;;;;;5012355;28;20588;-52
2020/12/11 06:06:16;;;;;;;19.60;12.80;;;;;;;;;;5012309;28;20196;-52
2020/12/11 06:08:45;;;;;;;22.13;14.55;;;;;;;;;;5012546;28;20183;-51
2020/12/11 06:11:21;;;;;;;22.13;14.45;;;;;;;;;;5011476;28;20177;-52
2020/12/11 06:13:53;;;;;;;19.75;14.05;;;;;;;;;;5012163;28;20640;-53
2020/12/11 06:16:20;;;;;;;22.95;13.55;;;;;;;;;;5012306;28;20172;-52
2020/12/11 06:18:47;;;;;;;30.48;15.68;;;;;;;;;;5012373;28;20257;-52
2020/12/11 06:21:17;;;;;;;19.77;13.68;;;;;;;;;;5012428;28;20255;-52
2020/12/11 06:23:43;;;;;;;22.50;13.85;;;;;;;;;;5012049;28;20178;-52
2020/12/11 06:26:14;;;;;;;21.77;13.60;;;;;;;;;;5012454;28;20599;-52
2020/12/11 06:28:41;;;;;;;20.90;13.60;;;;;;;;;;5011572;28;21027;-52
2020/12/11 06:31:07;;;;;;;18.42;13.50;;;;;;;;;;5011925;28;20546;-52
2020/12/11 06:33:34;;;;;;;18.83;14.43;;;;;;;;;;4991815;28;574746;-52
2020/12/11 06:36:01;;;;;;;22.95;14.40;;;;;;;;;;5008134;28;20873;-53
2020/12/11 06:38:39;;;;;;;23.52;14.32;;;;;;;;;;5011595;28;20204;-52
2020/12/11 06:41:05;;;;;;;26.45;12.73;;;;;;;;;;5012790;28;20660;-51
2020/12/11 06:43:44;;;;;;;20.80;13.80;;;;;;;;;;5011611;28;20181;-51
2020/12/11 06:46:10;;;;;;;20.33;12.30;;;;;;;;;;4993128;28;20465;-52
2020/12/11 06:48:36;;;;;;;23.08;14.55;;;;;;;;;;5006408;28;20176;-52
2020/12/11 06:51:04;;;;;;;20.30;13.57;;;;;;;;;;5008244;28;20177;-53
2020/12/11 06:53:39;;;;;;;22.35;14.73;;;;;;;;;;5001607;28;20930;-53
2020/12/11 06:56:05;;;;;;;22.90;14.48;;;;;;;;;;5012457;28;20205;-51
2020/12/11 06:58:31;;;;;;;19.50;13.20;;;;;;;;;;4996122;28;20183;-51
2020/12/11 07:00:57;;;;;;;22.50;14.20;;;;;;;;;;5003115;28;20415;-52
2020/12/11 07:03:30;;;;;;;21.73;14.23;;;;;;;;;;5000785;28;20478;-52
2020/12/11 07:05:57;;;;;;;18.88;12.80;;;;;;;;;;5010971;28;20805;-51
2020/12/11 07:08:23;;;;;;;22.92;14.50;;;;;;;;;;5011670;28;20216;-53
2020/12/11 07:10:49;;;;;;;17.70;12.93;;;;;;;;;;5010846;28;20180;-52
2020/12/11 07:13:15;;;;;;;18.55;12.25;;;;;;;;;;5012049;28;20415;-52
2020/12/11 07:15:41;;;;;;;20.20;12.30;;;;;;;;;;5011842;28;20196;-53
2020/12/11 07:18:14;;;;;;;17.30;11.77;;;;;;;;;;5012156;28;20450;-52
2020/12/11 07:20:46;;;;;;;21.23;13.90;;;;;;;;;;5012000;28;20410;-52
2020/12/11 07:23:12;;;;;;;15.38;11.20;;;;;;;;;;5011884;28;20685;-53
2020/12/11 07:25:38;;;;;;;18.63;12.53;;;;;;;;;;5011642;28;20296;-52
2020/12/11 07:28:04;;;;;;;21.63;12.93;;;;;;;;;;5011671;28;20806;-52
2020/12/11 07:30:30;;;;;;;23.13;14.30;;;;;;;;;;5009245;28;20166;-53
2020/12/11 07:32:57;;;;;;;16.70;11.65;;;;;;;;;;5011752;28;20413;-52
2020/12/11 07:35:23;;;;;;;18.50;12.30;;;;;;;;;;4993185;28;20222;-52
2020/12/11 07:37:50;;;;;;;19.42;13.32;;;;;;;;;;4992209;28;20185;-51
2020/12/11 07:40:17;;;;;;;19.17;13.52;;;;;;;;;;4998538;28;20180;-52
2020/12/11 07:42:43;;;;;;;21.48;13.50;;;;;;;;;;5010807;28;20552;-52
2020/12/11 07:45:09;;;;;;;16.83;12.63;;;;;;;;;;5011415;28;20209;-52
2020/12/11 07:47:36;;;;;;;21.08;13.52;;;;;;;;;;5011503;28;20247;-51
2020/12/11 07:50:07;;;;;;;20.38;14.15;;;;;;;;;;5009965;28;20173;-52
2020/12/11 07:52:33;;;;;;;21.55;15.40;;;;;;;;;;5010416;28;20187;-53
2020/12/11 07:54:59;;;;;;;16.67;12.20;;;;;;;;;;5005967;28;20408;-52
2020/12/11 07:57:26;;;;;;;19.57;12.30;;;;;;;;;;5009445;28;20188;-52
2020/12/11 08:00:01;;;;;;;14.63;10.95;;;;;;;;;;4991592;28;20411;-52
2020/12/11 08:02:29;;;;;;;19.55;12.77;;;;;;;;;;5001018;28;20235;-51
2020/12/11 08:04:55;;;;;;;15.43;11.60;;;;;;;;;;5011385;28;20290;-51
2020/12/11 08:07:28;;;;;;;17.73;11.73;;;;;;;;;;5011423;28;20172;-53
2020/12/11 08:09:54;;;;;;;18.02;11.93;;;;;;;;;;5010029;28;20180;-53
2020/12/11 08:12:22;;;;;;;13.25;10.05;;;;;;;;;;5010223;28;20188;-52
2020/12/11 08:14:48;;;;;;;15.35;11.02;;;;;;;;;;5010555;28;20235;-52
2020/12/11 08:17:15;;;;;;;16.70;11.75;;;;;;;;;;5011370;28;20169;-52
2020/12/11 08:19:42;;;;;;;16.60;12.15;;;;;;;;;;5011434;28;20182;-52
2020/12/11 08:22:11;;;;;;;14.50;10.60;;;;;;;;;;5011088;28;20175;-51
2020/12/11 08:24:38;;;;;;;15.80;11.40;;;;;;;;;;5010998;28;20207;-52
2020/12/11 08:27:04;;;;;;;15.65;11.27;;;;;;;;;;5011289;28;20194;-53
2020/12/11 08:29:30;;;;;;;18.07;11.43;;;;;;;;;;5010730;28;20612;-53
2020/12/11 08:31:56;;;;;;;15.83;10.67;;;;;;;;;;5010929;28;20430;-52
2020/12/11 08:34:27;;;;;;;14.23;11.40;;;;;;;;;;5010863;28;20452;-52
2020/12/11 08:37:01;;;;;;;18.73;11.57;;;;;;;;;;5010896;28;20423;-52
2020/12/11 08:39:28;;;;;;;14.10;11.30;;;;;;;;;;5011032;28;20271;-53
2020/12/11 08:49:53;;;;;;;14.80;10.90;;;;;;;;;;5010613;28;20803;-52
2020/12/11 08:52:19;;;;;;;13.95;10.18;;;;;;;;;;5012593;28;20173;-53
2020/12/11 08:54:47;;;;;;;14.50;10.40;;;;;;;;;;5014461;28;20229;-52
2020/12/11 08:57:12;;;;;;;12.32;10.10;;;;;;;;;;5013700;28;20410;-52
2020/12/11 08:59:38;;;;;;;12.77;9.70;;;;;;;;;;5014142;28;20177;-52
2020/12/11 09:02:04;;;;;;;15.67;10.87;;;;;;;;;;5014138;28;20832;-51
2020/12/11 09:04:31;;;;;;;11.95;9.60;;;;;;;;;;5014526;28;20466;-53
2020/12/11 09:06:57;;;;;;;11.43;9.48;;;;;;;;;;5014508;28;20632;-51
2020/12/11 09:09:23;;;;;;;11.18;8.70;;;;;;;;;;5014360;28;20198;-52
2020/12/11 09:11:49;;;;;;;12.48;9.35;;;;;;;;;;5013792;28;20564;-53
2020/12/11 09:14:15;;;;;;;11.60;9.40;;;;;;;;;;5014036;28;20204;-52
2020/12/11 09:16:41;;;;;;;12.25;9.98;;;;;;;;;;5014149;28;20177;-53
2020/12/11 09:19:08;;;;;;;11.65;9.25;;;;;;;;;;5014189;28;20179;-53
2020/12/11 09:21:34;;;;;;;13.38;9.75;;;;;;;;;;5014183;28;20185;-53
2020/12/11 09:24:00;;;;;;;12.33;9.50;;;;;;;;;;5013953;28;20170;-53
2020/12/11 09:26:28;;;;;;;11.20;8.73;;;;;;;;;;5013133;28;20473;-52
2020/12/11 09:29:07;;;;;;;12.43;9.75;;;;;;;;;;5013913;28;20835;-52
2020/12/11 09:31:34;;;;;;;12.93;9.98;;;;;;;;;;5014155;28;20174;-53
2020/12/11 09:34:00;;;;;;;12.43;10.00;;;;;;;;;;5013687;28;20178;-51
2020/12/11 09:36:26;;;;;;;15.17;9.70;;;;;;;;;;5013804;28;20178;-51
2020/12/11 09:38:53;;;;;;;11.73;9.20;;;;;;;;;;5013955;28;20406;-52
2020/12/11 09:41:26;;;;;;;12.85;9.98;;;;;;;;;;5012934;28;20463;-52
2020/12/11 09:44:08;;;;;;;14.73;10.60;;;;;;;;;;5004346;28;20540;-52
2020/12/11 09:46:48;;;;;;;11.00;9.05;;;;;;;;;;5013867;28;20273;-52
2020/12/11 09:49:19;;;;;;;12.70;9.38;;;;;;;;;;5013850;28;20183;-51
2020/12/11 09:51:57;;;;;;;11.45;8.85;;;;;;;;;;5012832;28;20538;-53
2020/12/11 09:54:29;;;;;;;13.05;9.25;;;;;;;;;;4993955;28;20687;-52
2020/12/11 09:56:56;;;;;;;11.57;9.65;;;;;;;;;;4997753;28;20180;-51
2020/12/11 09:59:28;;;;;;;11.10;8.77;;;;;;;;;;5013590;28;20171;-51
2020/12/11 10:02:26;;;;;;;11.13;9.18;;;;;;;;;;5013351;28;20167;-52
2020/12/11 10:04:49;;;;;;;12.38;10.13;;;;;;;;;;5012622;28;20227;-52
2020/12/11 10:07:15;;;;;;;11.35;9.02;;;;;;;;;;5013480;28;20179;-52
2020/12/11 10:09:42;;;;;;;10.17;8.80;;;;;;;;;;5013475;28;20168;-52
2020/12/11 10:12:08;;;;;;;11.55;9.13;;;;;;;;;;5012343;28;20445;-52
2020/12/11 10:14:43;;;;;;;9.57;8.57;;;;;;;;;;5013225;28;20194;-52
2020/12/11 10:17:09;;;;;;;9.40;8.40;;;;;;;;;;5013172;28;20184;-52
2020/12/11 10:19:36;;;;;;;12.70;9.25;;;;;;;;;;5013172;28;20197;-53
2020/12/11 10:22:02;;;;;;;11.90;9.45;;;;;;;;;;5012951;28;20194;-53
2020/12/11 10:24:28;;;;;;;11.35;8.90;;;;;;;;;;5012936;28;20234;-52
2020/12/11 10:26:54;;;;;;;10.80;9.20;;;;;;;;;;5012824;28;20172;-52
2020/12/11 10:29:22;;;;;;;13.40;9.17;;;;;;;;;;5013009;28;20303;-51
2020/12/11 10:31:48;;;;;;;9.95;8.45;;;;;;;;;;5012115;28;20411;-52
2020/12/11 10:34:14;;;;;;;10.80;9.00;;;;;;;;;;5012443;28;20701;-53
2020/12/11 10:36:40;;;;;;;10.65;8.27;;;;;;;;;;5012865;28;20777;-52
2020/12/11 10:39:07;;;;;;;8.95;7.53;;;;;;;;;;5012723;28;20172;-52
2020/12/11 10:41:33;;;;;;;11.68;8.30;;;;;;;;;;5011618;28;20185;-52
2020/12/11 10:43:59;;;;;;;10.77;8.93;;;;;;;;;;5012548;28;20651;-53
2020/12/11 10:46:25;;;;;;;12.57;7.63;;;;;;;;;;5012508;28;20452;-53
2020/12/11 10:48:51;;;;;;;10.13;8.13;;;;;;;;;;5012649;28;20754;-52
2020/12/11 10:51:18;;;;;;;9.60;7.77;;;;;;;;;;5012354;28;20412;-53
2020/12/11 10:53:45;;;;;;;9.63;7.93;;;;;;;;;;5011804;28;20418;-52
2020/12/11 10:56:11;;;;;;;14.77;8.87;;;;;;;;;;5012624;28;20405;-53
2020/12/11 10:58:37;;;;;;;10.20;7.50;;;;;;;;;;5012304;28;20414;-52
2020/12/11 11:01:04;;;;;;;9.60;7.37;;;;;;;;;;5012488;28;20414;-53
2020/12/11 11:03:30;;;;;;;8.70;7.17;;;;;;;;;;5012140;28;21086;-52
2020/12/11 11:06:01;;;;;;;9.10;7.43;;;;;;;;;;5012316;28;20457;-53
2020/12/11 11:08:38;;;;;;;8.87;7.63;;;;;;;;;;5012167;28;20419;-52
2020/12/11 11:11:04;;;;;;;8.50;7.27;;;;;;;;;;5012327;28;20410;-52
2020/12/11 11:13:50;;;;;;;11.80;7.50;;;;;;;;;;5010303;28;20789;-54
2020/12/11 11:16:25;;;;;;;10.37;8.90;;;;;;;;;;5011282;28;20444;-53
2020/12/11 11:18:56;;;;;;;10.27;7.70;;;;;;;;;;5011989;28;20411;-54
2020/12/11 11:24:10;;;;;;;10.80;9.07;;;;;;;;;;5011550;28;20924;-53
2020/12/11 11:26:41;;;;;;;11.93;8.33;;;;;;;;;;5012689;28;20423;-53
2020/12/11 11:29:07;;;;;;;11.23;8.07;;;;;;;;;;5011891;28;20411;-53
2020/12/11 11:31:33;;;;;;;8.93;7.07;;;;;;;;;;5012026;28;20163;-53
2020/12/11 11:34:01;;;;;;;9.80;7.53;;;;;;;;;;5011322;28;20947;-53
2020/12/11 11:36:28;;;;;;;10.67;8.10;;;;;;;;;;5011861;28;20415;-53
2020/12/11 11:38:54;;;;;;;11.77;7.85;;;;;;;;;;5010481;28;20919;-53
2020/12/11 11:46:50;;;;;;;9.65;8.23;;;;;;;;;;5011515;28;20564;-52
2020/12/11 11:49:52;;;;;;;10.30;8.33;;;;;;;;;;5011708;28;20213;-53
2020/12/11 11:54:46;;;;;;;8.90;6.77;;;;;;;;;;5011804;28;20222;-52
2020/12/11 11:57:12;;;;;;;10.47;7.33;;;;;;;;;;5011005;28;20900;-52
2020/12/11 11:59:38;;;;;;;10.23;7.43;;;;;;;;;;5011285;28;20415;-51
2020/12/11 12:02:04;;;;;;;10.00;8.10;;;;;;;;;;5010648;28;20551;-52
2020/12/11 12:04:30;;;;;;;8.85;7.47;;;;;;;;;;5010956;28;20446;-52
2020/12/11 12:06:56;;;;;;;8.52;7.40;;;;;;;;;;5011106;28;20177;-52
2020/12/11 12:09:23;;;;;;;11.30;7.72;;;;;;;;;;5011038;28;20655;-52
2020/12/11 12:11:49;;;;;;;11.68;7.93;;;;;;;;;;5010845;28;20234;-51
2020/12/11 12:14:15;;;;;;;11.10;7.77;;;;;;;;;;5010017;28;20208;-51
2020/12/11 12:16:43;;;;;;;9.95;8.00;;;;;;;;;;5010939;28;20790;-51
2020/12/11 12:19:14;;;;;;;10.27;8.23;;;;;;;;;;5011056;28;20178;-52
2020/12/11 12:29:32;;;;;;;11.35;7.00;;;;;;;;;;5010932;28;20558;-52
2020/12/11 12:32:21;;;;;;;10.20;7.73;;;;;;;;;;5010640;28;20176;-55
2020/12/11 12:34:57;;;;;;;10.10;7.55;;;;;;;;;;5009891;28;20813;-53
2020/12/11 12:40:17;;;;;;;7.75;6.95;;;;;;;;;;5010641;28;20191;-52
2020/12/11 12:45:15;;;;;;;10.48;8.00;;;;;;;;;;5010376;28;20250;-53
2020/12/11 12:47:41;;;;;;;11.02;8.48;;;;;;;;;;5010940;28;20168;-53
2020/12/11 12:50:08;;;;;;;10.48;8.02;;;;;;;;;;5010529;28;20599;-52
2020/12/11 12:52:35;;;;;;;10.48;6.97;;;;;;;;;;5010553;28;20173;-51
2020/12/11 12:55:01;;;;;;;10.60;8.30;;;;;;;;;;5010564;28;20228;-52
2020/12/11 12:57:45;;;;;;;9.17;7.00;;;;;;;;;;5010641;28;20302;-52
2020/12/11 13:05:24;;;;;;;10.25;7.28;;;;;;;;;;5010525;28;20215;-51
2020/12/11 13:07:50;;;;;;;8.83;7.10;;;;;;;;;;5010611;28;20169;-52
2020/12/11 13:10:16;;;;;;;8.33;6.73;;;;;;;;;;5010399;28;20415;-51
2020/12/11 13:12:43;;;;;;;10.48;6.43;;;;;;;;;;5009511;28;20771;-52
2020/12/11 13:15:10;;;;;;;10.60;7.95;;;;;;;;;;5010414;28;20214;-53
2020/12/11 13:17:36;;;;;;;12.30;7.75;;;;;;;;;;5010756;28;20610;-52
2020/12/11 13:20:04;;;;;;;11.30;7.80;;;;;;;;;;5010283;28;20181;-52
2020/12/11 13:25:20;;;;;;;11.02;8.50;;;;;;;;;;5010416;28;20455;-53
2020/12/11 13:25:24;;;;;;;10.75;7.40;;;;;;;;;;5009498;28;20215;-51
2020/12/11 13:27:50;;;;;;;9.57;7.07;;;;;;;;;;5010836;28;20568;-52
2020/12/11 13:30:19;;;;;;;12.23;7.60;;;;;;;;;;5010067;28;20198;-52
2020/12/11 13:32:44;;;;;;;9.27;7.07;;;;;;;;;;5010394;28;20422;-52
2020/12/11 13:35:10;;;;;;;8.47;7.43;;;;;;;;;;5009873;28;20208;-52
2020/12/11 13:37:36;;;;;;;7.87;6.70;;;;;;;;;;5010263;28;20987;-52
2020/12/11 13:40:03;;;;;;;9.80;7.00;;;;;;;;;;5013248;28;20465;-52
2020/12/11 13:42:29;;;;;;;8.82;6.47;;;;;;;;;;5012628;28;20431;-52
2020/12/11 13:44:55;;;;;;;9.30;6.40;;;;;;;;;;5012970;28;20207;-52
2020/12/11 13:47:21;;;;;;;9.35;7.60;;;;;;;;;;5013841;28;20404;-52
2020/12/11 13:49:47;;;;;;;9.20;7.32;;;;;;;;;;5013250;28;20176;-52
2020/12/11 13:52:13;;;;;;;9.07;7.13;;;;;;;;;;5013317;28;20164;-52
2020/12/11 13:54:39;;;;;;;8.93;6.57;;;;;;;;;;5013527;28;20433;-52
2020/12/11 13:57:05;;;;;;;8.27;7.15;;;;;;;;;;5013369;28;20504;-52
2020/12/11 13:59:32;;;;;;;9.10;7.07;;;;;;;;;;5002510;28;20182;-52
2020/12/11 14:01:58;;;;;;;9.48;7.05;;;;;;;;;;5013461;28;20620;-55
2020/12/11 14:04:24;;;;;;;9.02;7.15;;;;;;;;;;5012226;28;20213;-51
2020/12/11 14:06:50;;;;;;;8.00;6.70;;;;;;;;;;5013052;28;20222;-51
2020/12/11 14:09:17;;;;;;;9.40;7.45;;;;;;;;;;5013302;28;20177;-52
2020/12/11 14:11:43;;;;;;;10.65;8.02;;;;;;;;;;5013571;28;20231;-53
2020/12/11 14:14:09;;;;;;;9.73;7.15;;;;;;;;;;5011787;28;20231;-53
2020/12/11 14:16:50;;;;;;;8.23;6.90;;;;;;;;;;5013326;28;20226;-52
2020/12/11 14:24:31;;;;;;;7.82;6.53;;;;;;;;;;5013070;28;20303;-52
2020/12/11 14:26:58;;;;;;;11.32;7.22;;;;;;;;;;5012914;28;20660;-52
2020/12/11 14:29:24;;;;;;;7.90;7.10;;;;;;;;;;5012872;28;20204;-52
2020/12/11 14:31:51;;;;;;;9.83;7.37;;;;;;;;;;5012976;28;20199;-52
2020/12/11 14:34:17;;;;;;;8.80;7.38;;;;;;;;;;4993066;28;20708;-52
2020/12/11 14:36:43;;;;;;;8.37;6.83;;;;;;;;;;4994191;28;20170;-52
2020/12/11 14:39:10;;;;;;;8.50;7.47;;;;;;;;;;5012759;28;20415;-52
2020/12/11 14:41:37;;;;;;;8.65;6.90;;;;;;;;;;5011177;28;20499;-53
2020/12/11 14:44:03;;;;;;;7.28;6.07;;;;;;;;;;5011862;28;20189;-52
2020/12/11 14:46:29;;;;;;;8.90;7.80;;;;;;;;;;5012432;28;20700;-52
2020/12/11 14:48:57;;;;;;;9.00;7.18;;;;;;;;;;5012556;28;20180;-53
2020/12/11 14:51:30;;;;;;;10.77;7.90;;;;;;;;;;5011656;28;20175;-53
2020/12/11 14:53:57;;;;;;;10.60;8.38;;;;;;;;;;5012081;28;20169;-51
2020/12/11 14:56:23;;;;;;;8.32;7.35;;;;;;;;;;5012111;28;20204;-52
2020/12/11 14:58:49;;;;;;;10.63;7.57;;;;;;;;;;4993055;28;20204;-52
2020/12/11 15:01:15;;;;;;;8.50;7.60;;;;;;;;;;4992797;28;20202;-51
2020/12/11 15:03:41;;;;;;;8.00;7.20;;;;;;;;;;5010464;28;20838;-52
2020/12/11 15:06:10;;;;;;;8.02;7.22;;;;;;;;;;5012193;28;20505;-52
2020/12/11 15:08:37;;;;;;;7.43;6.25;;;;;;;;;;5011919;28;20172;-51